Terminal Aerodrome Forecast
Issued by NWS

Home | Current Version | Previous Version | Text Only | Print | Product List | Glossary On
Versions: 1 2 3 4 5 6 7 8 9 10 11 12 13 14 15 16 17 18 19 20 21 22 23 24 25 26 27 28
000
FTUS41 KCTP 241200 CCA
TAFAOO
TAF COR
KAOO 241200Z 2412/2512 VRB03KT P6SM SCT100 BKN250
     FM250000 VRB03KT P6SM VCSH BKN100 PROB30 2500/2506 5SM -TSRA
      OVC040CB=

USA.gov is the U.S. government's official web portal to all federal, state and local government web resources and services.